METAR Data

Data at: 1117 UTC 24 May 2022

METAR for:KIWI (Wiscasset Arpt, ME, US)
Text:KIWI 241053Z AUTO VRB04KT 10SM CLR 10/02 A3038 RMK AO2 SLP286 T01000022
Temperature: 10.0°C ( 50°F)
Dewpoint: 2.2°C ( 36°F) [RH = 58%]
Pressure (altimeter):30.38 inches Hg (1028.9 mb) [Sea level pressure: 1028.6 mb]
Winds:variable direction winds at 5 MPH (4 knots; 2.1 m/s)
Visibility:10 or more sm (16+ km)
Ceiling:at least 12,000 feet AGL
Clouds:sky clear below 12,000 feet AGL
QC Flag:automated observation with no human augmentation